Terminal Aerodrome Forecast
Issued by NWS

Home | Current Version | Previous Version | Text Only | Print | Product List | Glossary On
Versions: 1 2 3 4 5 6 7 8 9 10 11 12 13 14 15 16 17 18
159
FTUS46 KSEW 141123
TAFBLI
TAF
KBLI 141123Z 1412/1512 00000KT 4SM BR SCT250
      TEMPO 1412/1416 1SM BR SCT002
     FM142000 05005KT P6SM BKN200
     FM150300 12005KT P6SM BKN150
     FM150800 16008KT P6SM SCT020 BKN040 BKN120=

USA.gov is the U.S. government's official web portal to all federal, state and local government web resources and services.